METAR Data
IDs: Format: Raw Decoded Include TAF

Data at: 1620 UTC 19 Sep 2018

KEBA 191615Z AUTO 00000KT 10SM CLR 32/18 A3005 RMK AO2 T03200184
KEBA 191555Z AUTO 00000KT 10SM CLR 32/19 A3006 RMK AO2 T03210189
KEBA 191535Z AUTO 00000KT 10SM CLR 32/19 A3006 RMK AO2 T03160189
KEBA 191515Z AUTO 00000KT 10SM CLR 31/19 A3006 RMK AO2 T03070193
KEBA 191455Z AUTO 00000KT 10SM CLR 30/20 A3006 RMK AO2 T03000198
KEBA 191435Z AUTO 00000KT 10SM CLR 29/21 A3006 RMK AO2 T02910211
KEBA 191415Z AUTO 00000KT 10SM CLR 28/22 A3005 RMK AO2 T02840217
KEBA 191355Z AUTO 02003KT 10SM CLR 27/22 A3005 RMK AO2 T02740220
KEBA 191335Z AUTO 36003KT 10SM CLR 26/22 A3005 RMK AO2 T02610224
KEBA 191315Z AUTO 00000KT 10SM CLR 25/22 A3004 RMK AO2 T02480223
KEBA 191255Z AUTO 00000KT 10SM CLR 24/22 A3004 RMK AO2 T02370220
KEBA 191235Z AUTO 00000KT 10SM CLR 23/22 A3004 RMK AO2 T02270217
KEBA 191215Z AUTO 00000KT 7SM CLR 22/21 A3003 RMK AO2 T02200210
KEBA 191155Z AUTO 00000KT 5SM BR CLR 22/21 A3002 RMK AO2 T02150206 10226 20211
KEBA 191135Z AUTO 00000KT 5SM BR CLR 22/21 A3001 RMK AO2 T02150205
KEBA 191115Z AUTO 00000KT 5SM BR CLR 22/21 A3001 RMK AO2 T02150205
KEBA 191055Z AUTO 00000KT 7SM CLR 21/21 A3001 RMK AO2 T02140205
KEBA 191035Z AUTO 00000KT 7SM CLR 21/20 A3001 RMK AO2 T02120202
KEBA 191015Z AUTO 00000KT 10SM CLR 22/21 A3000 RMK AO2 T02160206
KEBA 190955Z AUTO 00000KT 7SM CLR 22/21 A2999 RMK AO2 T02150205
KEBA 190935Z AUTO 00000KT 4SM BR CLR 22/21 A2999 RMK AO2 T02150205
KEBA 190915Z AUTO 00000KT 7SM CLR 22/21 A2998 RMK AO2 T02160206
KEBA 190855Z AUTO 00000KT 10SM CLR 22/21 A2997 RMK AO2 T02220212
KEBA 190835Z AUTO 00000KT 10SM CLR 22/21 A2996 RMK AO2 T02210211
KEBA 190815Z AUTO 00000KT 10SM CLR 22/21 A2997 RMK AO2 T02220212
KEBA 190755Z AUTO 00000KT 10SM CLR 22/21 A2997 RMK AO2 T02220211
KEBA 190735Z AUTO 00000KT 10SM CLR 22/21 A2997 RMK AO2 T02210210
KEBA 190715Z AUTO 00000KT 10SM CLR 23/21 A2997 RMK AO2 T02250212
KEBA 190655Z AUTO 00000KT 10SM CLR 23/22 A2997 RMK AO2 T02260215
KEBA 190635Z AUTO 00000KT 10SM CLR 23/21 A2997 RMK AO2 T02250212
KEBA 190615Z AUTO 00000KT 10SM CLR 23/21 A2997 RMK AO2 T02250212
KEBA 190555Z AUTO 00000KT 10SM CLR 22/21 A2998 RMK AO2 T02220209 10251 20222 403490207
KEBA 190535Z AUTO 00000KT 10SM CLR 23/21 A2998 RMK AO2 T02260211
KEBA 190515Z AUTO 00000KT 10SM CLR 23/21 A2998 RMK AO2 T02290211
KEBA 190455Z AUTO 00000KT 10SM CLR 23/21 A2998 RMK AO2 T02320214
KEBA 190435Z AUTO 00000KT 10SM CLR 24/22 A2998 RMK AO2 T02350215
KEBA 190415Z AUTO 00000KT 10SM CLR 24/22 A2998 RMK AO2 T02360216
KEBA 190355Z AUTO 00000KT 10SM CLR 24/22 A2997 RMK AO2 T02400216
KEBA 190335Z AUTO 00000KT 10SM CLR 24/22 A2998 RMK AO2 T02410217
KEBA 190315Z AUTO 00000KT 10SM CLR 24/22 A2998 RMK AO2 T02400218
KEBA 190255Z AUTO 00000KT 10SM CLR 24/22 A2997 RMK AO2 T02430224
KEBA 190235Z AUTO 00000KT 10SM CLR 25/23 A2996 RMK AO2 T02450226
KEBA 190215Z AUTO 00000KT 10SM CLR 25/23 A2996 RMK AO2 T02450228
KEBA 190155Z AUTO 00000KT 10SM CLR 25/23 A2996 RMK AO2 T02470229
KEBA 190135Z AUTO 00000KT 10SM CLR 25/23 A2995 RMK AO2 T02490227
KEBA 190115Z AUTO 00000KT 10SM CLR 25/23 A2996 RMK AO2 T02490225
KEBA 190055Z AUTO 00000KT 10SM CLR 25/23 A2995 RMK AO2 T02490230
KEBA 190035Z AUTO 00000KT 10SM SCT120 25/23 A2994 RMK AO2 T02500225
KEBA 190015Z AUTO 00000KT 10SM CLR 25/22 A2994 RMK AO2 LTG DSNT S T02500223
KEBA 182355Z AUTO 00000KT 10SM VCTS SCT110 25/23 A2994 RMK AO2 T02500231 10349 20250
KEBA 182335Z AUTO 11004KT 10SM SCT090 SCT110 25/23 A2994 RMK AO2 T02530230
KEBA 182315Z AUTO 07004KT 10SM -RA SCT014 SCT046 BKN090 27/23 A2994 RMK AO2 T02690227
KEBA 182255Z AUTO 04004KT 7SM SCT046 BKN065 BKN070 30/21 A2994 RMK AO2 LTG DSNT SW T02960213
KEBA 182235Z AUTO 00000KT 10SM SCT065 SCT080 30/21 A2992 RMK AO2 T03020214
KEBA 182215Z AUTO 00000KT 10SM CLR 31/21 A2991 RMK AO2 T03100206
KEBA 182155Z AUTO 00000KT 10SM SCT055 33/19 A2991 RMK AO2 T03290193
KEBA 182135Z AUTO 01003KT 10SM BKN055 35/20 A2990 RMK AO2 T03460196
KEBA 182115Z AUTO 00000KT 10SM BKN055 34/19 A2990 RMK AO2 T03430187
KEBA 182055Z AUTO 00000KT 10SM CLR 33/20 A2991 RMK AO2 T03300201
KEBA 182035Z AUTO 00000KT 10SM SCT060 SCT075 33/20 A2991 RMK AO2 T03250198
KEBA 182015Z AUTO 00000KT 10SM SCT060 BKN075 34/19 A2991 RMK AO2 T03360185
KEBA 181955Z AUTO 28004KT 10SM CLR 34/19 A2991 RMK AO2 T03440188
KEBA 181935Z AUTO 00000KT 10SM SCT060 34/18 A2992 RMK AO2 T03410180
KEBA 181915Z AUTO 28006KT 10SM BKN060 BKN070 35/18 A2992 RMK AO2 T03470184
KEBA 181855Z AUTO 11003KT 10SM CLR 34/19 A2993 RMK AO2 T03440185
KEBA 181835Z AUTO 00000KT 10SM SCT050 31/21 A2994 RMK AO2 T03120210
KEBA 181815Z AUTO 00000KT 10SM BKN050 33/19 A2995 RMK AO2 T03260185
KEBA 181755Z AUTO 00000KT 10SM BKN050 33/19 A2995 RMK AO2 T03290185 10331 20215
KEBA 181735Z AUTO 00000KT 10SM SCT050 33/18 A2996 RMK AO2 T03310182
KEBA 181715Z AUTO 00000KT 10SM CLR 33/19 A2997 RMK AO2 T03300186
KEBA 181655Z AUTO 00000KT 10SM CLR 33/20 A2998 RMK AO2 T03260195
KEBA 181635Z AUTO 00000KT 10SM CLR 32/20 A2999 RMK AO2 T03180199
KEBA 181615Z AUTO 00000KT 10SM CLR 32/20 A2999 RMK AO2 T03150204
KEBA 181555Z AUTO 00000KT 10SM CLR 31/21 A2999 RMK AO2 T03120206
KEBA 181535Z AUTO 10003KT 10SM CLR 31/21 A2999 RMK AO2 T03090206
KEBA 181515Z AUTO 20004KT 10SM CLR 30/20 A2999 RMK AO2 T03000204
KEBA 181455Z AUTO 10003KT 10SM CLR 30/21 A3000 RMK AO2 T02990208
KEBA 181435Z AUTO 00000KT 10SM CLR 29/21 A3000 RMK AO2 T02880205
KEBA 181415Z AUTO 00000KT 10SM CLR 28/21 A3000 RMK AO2 T02770206
KEBA 181355Z AUTO 00000KT 10SM CLR 27/21 A3000 RMK AO2 T02690213
KEBA 181335Z AUTO 00000KT 10SM CLR 26/21 A3000 RMK AO2 T02620214
KEBA 181315Z AUTO 00000KT 10SM CLR 25/21 A3000 RMK AO2 T02510214
KEBA 181255Z AUTO 00000KT 10SM CLR 24/21 A3000 RMK AO2 T02410212
KEBA 181235Z AUTO 00000KT 10SM CLR 23/21 A3000 RMK AO2 T02340213
KEBA 181215Z AUTO 00000KT 10SM CLR 22/21 A2999 RMK AO2 T02210209
KEBA 181155Z AUTO 00000KT 10SM CLR 21/20 A2999 RMK AO2 T02140204 10226 20207
KEBA 181135Z AUTO 00000KT 10SM CLR 21/20 A2999 RMK AO2 T02080198
KEBA 181115Z AUTO 00000KT 10SM CLR 21/20 A2999 RMK AO2 T02080198
KEBA 181055Z AUTO 00000KT 10SM CLR 21/20 A2999 RMK AO2 T02070197
KEBA 181035Z AUTO 00000KT 10SM CLR 21/20 A2999 RMK AO2 T02080198
KEBA 181015Z AUTO 00000KT 10SM CLR 21/20 A2998 RMK AO2 T02070196
KEBA 180955Z AUTO 00000KT 10SM CLR 21/20 A2999 RMK AO2 T02090198
KEBA 180935Z AUTO 00000KT 10SM CLR 21/20 A2998 RMK AO2 T02130202
KEBA 180915Z AUTO 00000KT 10SM CLR 21/20 A2998 RMK AO2 T02100199
KEBA 180855Z AUTO 00000KT 10SM CLR 21/20 A2998 RMK AO2 T02130201
KEBA 180835Z AUTO 00000KT 10SM CLR 22/21 A2997 RMK AO2 T02150205
KEBA 180815Z AUTO 00000KT 10SM CLR 22/20 A2997 RMK AO2 T02150202
KEBA 180755Z AUTO 27004KT 10SM CLR 22/21 A2996 RMK AO2 T02210206
KEBA 180735Z AUTO 00000KT 10SM CLR 22/21 A2996 RMK AO2 T02180205
KEBA 180715Z AUTO 00000KT 10SM CLR 22/21 A2997 RMK AO2 T02170205
KEBA 180655Z AUTO 00000KT 10SM CLR 22/21 A2997 RMK AO2 T02180205
KEBA 180635Z AUTO 00000KT 10SM CLR 22/21 A2997 RMK AO2 T02170205
KEBA 180615Z AUTO 00000KT 10SM CLR 22/21 A2997 RMK AO2 T02220207
KEBA 180555Z AUTO 00000KT 10SM CLR 23/21 A2997 RMK AO2 T02270208 10279 20227 403410213
KEBA 180535Z AUTO 28005KT 10SM CLR 24/21 A2998 RMK AO2 T02350210
KEBA 180515Z AUTO 28005KT 10SM CLR 23/21 A2997 RMK AO2 T02300210
KEBA 180455Z AUTO 00000KT 10SM CLR 23/21 A2998 RMK AO2 T02320212
KEBA 180435Z AUTO 00000KT 10SM CLR 23/21 A2998 RMK AO2 T02320211